Bandon, OR

4:14 PM PDT on August 27, 2014 (GMT -0700)
Brookings | Change Station
CLOSE
Current Station
Airport
Location: Brookings,
Elevation: 459 ft
Nearby Weather Stations

Elev 459 ft 42.07 °N, 124.29 °W | Updated 18 minutes ago

Clear
Clear
62 °F
Feels Like 62 °F
N
6
Wind Variable Wind from Variable

Today
High -- | Low -- °F
--% Chance of Precip.
Yesterday
High -- | Low -- °F
Precip. -- in
6:36 AM 8:00 PM
Waxing Crescent, 5% visible
Pressure 30.09 in
Visibility 9.0 miles
Clouds Clear
Dew Point 55 °F
Humidity 78%
Rainfall 0.00 in
Snow Depth Not available.
UV 6 out of 12
Pollen 3.50 out of 12
Air Quality Not available.
Flu Activity Not available.
METAR KBOK 272256Z AUTO VRB05KT 9SM CLR 17/13 A3009 RMK AO2 T01660127 SLP188

More Conditions Fewer Conditions

Pressure 30.09 in
Visibility 9.0 miles
Clouds Clear
Dew Point 55 °F
Humidity 78%
Rainfall 0.00 in
Snow Depth Not available.
UV 6 out of 12
Pollen 3.50 out of 12
Air Quality Not available.
Flu Activity Not available.
METAR KBOK 272256Z AUTO VRB05KT 9SM CLR 17/13 A3009 RMK AO2 T01660127 SLP188

More Conditions Fewer Conditions

10-Day Weather Forecast

Almanac

Astronomy

Aug. 27, 2014 Rise Set
Actual Time 6:36 AM PDT 8:00 PM PDT
Civil Twilight 6:06 AM PDT 8:30 PM PDT
Nautical Twilight 5:31 AM PDT 9:05 PM PDT
Astronomical Twilight 4:53 AM PDT 9:43 PM PDT
Moon 8:42 AM PDT 8:50 PM PDT
Length of Visible Light 14h 23m
Length of Day
13h 24m
Tomorrow will be 2m 47s shorter.
Waxing Crescent, 5% of the Moon is Illuminated
Today
Waxing Crescent
Sep 2
First Quarter
Sep 8
Full
Sep 15
Last Quarter
Sep 24
New

Today's Extremes

State Highs State Lows

Community

WunderPhotos

Upload Photos

1,747,815 photos uploaded!

Nearby

Snow Depth

Station Depth Elevation
Fish Lake 0 in 4665 ft
Diamond Lake 0 in 5315 ft
Sevenmile Marsh 0 in 6200 ft
Cold Springs Camp 0 in 6100 ft
New Crescent Lake 0 in 4800 ft

Earthquake Activity

City Distance Mag. Time & Date
Waldport, Oregon 112 miles 2.5 10:59 PM PDT
2014-08-25
Minimum magnitude displayed is 2.5.

Coastal Water Temperatures

Place Temperature
Port Orford, OR 55.9 °F
Charleston, OR 51.1 °F
South Beach, OR 50.0 °F

Nearby Weather Stations